sensor_id;sensor_type;location;lat;lon;timestamp;P1;durP1;ratioP1;P2;durP2;ratioP2
735;SDS011;352;48.626;9.238;2022-07-29T00:00:37;164.77;;;151.53;;
735;SDS011;352;48.626;9.238;2022-07-29T00:03:04;159.90;;;146.23;;
735;SDS011;352;48.626;9.238;2022-07-29T00:05:31;156.97;;;145.00;;
735;SDS011;352;48.626;9.238;2022-07-29T00:07:58;154.30;;;142.73;;
735;SDS011;352;48.626;9.238;2022-07-29T00:10:27;149.87;;;138.47;;
735;SDS011;352;48.626;9.238;2022-07-29T00:12:53;143.73;;;133.50;;
735;SDS011;352;48.626;9.238;2022-07-29T00:15:20;158.63;;;146.63;;
735;SDS011;352;48.626;9.238;2022-07-29T00:17:47;144.53;;;134.07;;
735;SDS011;352;48.626;9.238;2022-07-29T00:20:15;135.33;;;126.20;;
735;SDS011;352;48.626;9.238;2022-07-29T00:22:42;114.53;;;107.53;;
735;SDS011;352;48.626;9.238;2022-07-29T00:25:09;112.80;;;105.90;;
735;SDS011;352;48.626;9.238;2022-07-29T00:27:37;96.10;;;90.13;;
735;SDS011;352;48.626;9.238;2022-07-29T00:30:04;114.60;;;108.93;;
735;SDS011;352;48.626;9.238;2022-07-29T00:32:32;112.23;;;105.40;;
735;SDS011;352;48.626;9.238;2022-07-29T00:34:59;106.60;;;100.10;;
735;SDS011;352;48.626;9.238;2022-07-29T00:37:44;173.53;;;157.17;;
735;SDS011;352;48.626;9.238;2022-07-29T00:40:11;169.53;;;154.23;;
735;SDS011;352;48.626;9.238;2022-07-29T00:42:43;167.13;;;153.77;;
735;SDS011;352;48.626;9.238;2022-07-29T00:45:10;163.03;;;149.67;;
735;SDS011;352;48.626;9.238;2022-07-29T00:47:37;161.30;;;147.53;;
735;SDS011;352;48.626;9.238;2022-07-29T00:50:05;160.13;;;147.23;;
735;SDS011;352;48.626;9.238;2022-07-29T00:52:34;160.20;;;146.60;;
735;SDS011;352;48.626;9.238;2022-07-29T00:55:02;161.60;;;148.40;;
735;SDS011;352;48.626;9.238;2022-07-29T00:57:31;154.40;;;142.20;;
735;SDS011;352;48.626;9.238;2022-07-29T00:59:59;167.23;;;153.37;;
735;SDS011;352;48.626;9.238;2022-07-29T01:02:26;155.87;;;142.47;;
735;SDS011;352;48.626;9.238;2022-07-29T01:04:53;157.40;;;144.63;;
735;SDS011;352;48.626;9.238;2022-07-29T01:07:21;156.87;;;143.90;;
735;SDS011;352;48.626;9.238;2022-07-29T01:09:49;149.33;;;137.63;;
735;SDS011;352;48.626;9.238;2022-07-29T01:12:17;148.00;;;136.40;;
735;SDS011;352;48.626;9.238;2022-07-29T01:14:47;164.00;;;152.03;;
735;SDS011;352;48.626;9.238;2022-07-29T01:17:17;140.60;;;130.20;;
735;SDS011;352;48.626;9.238;2022-07-29T01:19:51;141.73;;;131.43;;
735;SDS011;352;48.626;9.238;2022-07-29T01:22:36;133.80;;;123.83;;
735;SDS011;352;48.626;9.238;2022-07-29T01:25:17;133.53;;;123.77;;
735;SDS011;352;48.626;9.238;2022-07-29T01:28:01;127.97;;;118.67;;
735;SDS011;352;48.626;9.238;2022-07-29T01:30:44;132.13;;;122.53;;
735;SDS011;352;48.626;9.238;2022-07-29T01:33:13;133.90;;;123.87;;
735;SDS011;352;48.626;9.238;2022-07-29T01:35:57;140.47;;;130.20;;
735;SDS011;352;48.626;9.238;2022-07-29T01:38:25;126.10;;;117.07;;
735;SDS011;352;48.626;9.238;2022-07-29T01:40:57;129.87;;;120.67;;
735;SDS011;352;48.626;9.238;2022-07-29T01:43:31;126.97;;;118.10;;
735;SDS011;352;48.626;9.238;2022-07-29T01:46:04;114.17;;;106.77;;
735;SDS011;352;48.626;9.238;2022-07-29T01:48:36;116.40;;;108.93;;
735;SDS011;352;48.626;9.238;2022-07-29T01:51:07;133.20;;;123.70;;
735;SDS011;352;48.626;9.238;2022-07-29T01:53:38;130.10;;;120.60;;
735;SDS011;352;48.626;9.238;2022-07-29T01:56:09;135.37;;;125.40;;
735;SDS011;352;48.626;9.238;2022-07-29T01:58:38;141.17;;;130.70;;
735;SDS011;352;48.626;9.238;2022-07-29T02:01:09;127.30;;;117.77;;
735;SDS011;352;48.626;9.238;2022-07-29T02:03:37;127.90;;;118.60;;
735;SDS011;352;48.626;9.238;2022-07-29T02:06:05;139.97;;;129.17;;
735;SDS011;352;48.626;9.238;2022-07-29T02:08:33;147.83;;;136.20;;
735;SDS011;352;48.626;9.238;2022-07-29T02:11:01;156.87;;;143.17;;
735;SDS011;352;48.626;9.238;2022-07-29T02:13:30;150.27;;;137.10;;
735;SDS011;352;48.626;9.238;2022-07-29T02:16:00;157.47;;;143.63;;
735;SDS011;352;48.626;9.238;2022-07-29T02:18:29;151.53;;;137.90;;
735;SDS011;352;48.626;9.238;2022-07-29T02:20:56;152.53;;;138.73;;
735;SDS011;352;48.626;9.238;2022-07-29T02:23:25;149.83;;;136.73;;
735;SDS011;352;48.626;9.238;2022-07-29T02:25:55;156.47;;;142.40;;
735;SDS011;352;48.626;9.238;2022-07-29T02:28:24;147.70;;;134.20;;
735;SDS011;352;48.626;9.238;2022-07-29T02:30:54;150.43;;;136.93;;
735;SDS011;352;48.626;9.238;2022-07-29T02:33:24;162.63;;;147.57;;
735;SDS011;352;48.626;9.238;2022-07-29T02:35:53;155.90;;;140.53;;
735;SDS011;352;48.626;9.238;2022-07-29T02:38:21;147.23;;;134.40;;
735;SDS011;352;48.626;9.238;2022-07-29T02:41:08;145.83;;;133.53;;
735;SDS011;352;48.626;9.238;2022-07-29T02:43:37;136.00;;;124.53;;
735;SDS011;352;48.626;9.238;2022-07-29T02:46:05;146.33;;;134.47;;
735;SDS011;352;48.626;9.238;2022-07-29T02:48:37;157.80;;;142.83;;
735;SDS011;352;48.626;9.238;2022-07-29T02:51:11;151.33;;;137.10;;
735;SDS011;352;48.626;9.238;2022-07-29T02:53:42;151.07;;;136.27;;
735;SDS011;352;48.626;9.238;2022-07-29T02:56:13;148.20;;;133.80;;
735;SDS011;352;48.626;9.238;2022-07-29T02:58:45;141.20;;;128.93;;
735;SDS011;352;48.626;9.238;2022-07-29T03:01:16;150.47;;;136.60;;
735;SDS011;352;48.626;9.238;2022-07-29T03:03:46;149.73;;;135.07;;
735;SDS011;352;48.626;9.238;2022-07-29T03:06:17;143.67;;;130.23;;
735;SDS011;352;48.626;9.238;2022-07-29T03:08:45;143.23;;;130.37;;
735;SDS011;352;48.626;9.238;2022-07-29T03:11:12;148.07;;;134.57;;
735;SDS011;352;48.626;9.238;2022-07-29T03:13:40;144.03;;;130.37;;
735;SDS011;352;48.626;9.238;2022-07-29T03:16:09;146.13;;;132.77;;
735;SDS011;352;48.626;9.238;2022-07-29T03:18:36;147.60;;;133.63;;
735;SDS011;352;48.626;9.238;2022-07-29T03:21:04;173.43;;;158.10;;
735;SDS011;352;48.626;9.238;2022-07-29T03:23:32;151.93;;;137.73;;
735;SDS011;352;48.626;9.238;2022-07-29T03:25:59;160.33;;;144.33;;
735;SDS011;352;48.626;9.238;2022-07-29T03:28:26;154.93;;;139.03;;
735;SDS011;352;48.626;9.238;2022-07-29T03:30:53;156.07;;;139.70;;
735;SDS011;352;48.626;9.238;2022-07-29T03:33:20;154.10;;;137.50;;
735;SDS011;352;48.626;9.238;2022-07-29T03:35:47;156.80;;;140.23;;
735;SDS011;352;48.626;9.238;2022-07-29T03:38:14;164.07;;;145.90;;
735;SDS011;352;48.626;9.238;2022-07-29T03:40:44;170.43;;;152.53;;
735;SDS011;352;48.626;9.238;2022-07-29T03:43:17;155.10;;;138.00;;
735;SDS011;352;48.626;9.238;2022-07-29T03:45:45;160.37;;;139.43;;
735;SDS011;352;48.626;9.238;2022-07-29T03:48:16;157.43;;;141.10;;
735;SDS011;352;48.626;9.238;2022-07-29T03:50:45;153.90;;;138.20;;
735;SDS011;352;48.626;9.238;2022-07-29T03:53:12;157.77;;;141.27;;
735;SDS011;352;48.626;9.238;2022-07-29T03:55:40;163.87;;;146.33;;
735;SDS011;352;48.626;9.238;2022-07-29T03:58:10;149.27;;;133.90;;
735;SDS011;352;48.626;9.238;2022-07-29T04:00:38;151.70;;;135.23;;
735;SDS011;352;48.626;9.238;2022-07-29T04:03:06;156.60;;;139.63;;
735;SDS011;352;48.626;9.238;2022-07-29T04:05:33;165.47;;;147.40;;
735;SDS011;352;48.626;9.238;2022-07-29T04:08:00;148.10;;;131.80;;
735;SDS011;352;48.626;9.238;2022-07-29T04:10:27;144.83;;;131.07;;
735;SDS011;352;48.626;9.238;2022-07-29T04:12:54;141.13;;;126.90;;
735;SDS011;352;48.626;9.238;2022-07-29T04:15:23;156.63;;;137.47;;
735;SDS011;352;48.626;9.238;2022-07-29T04:17:49;176.10;;;138.33;;
735;SDS011;352;48.626;9.238;2022-07-29T04:20:17;165.67;;;144.10;;
735;SDS011;352;48.626;9.238;2022-07-29T04:22:44;198.83;;;145.57;;
735;SDS011;352;48.626;9.238;2022-07-29T04:25:11;215.97;;;157.60;;
735;SDS011;352;48.626;9.238;2022-07-29T04:27:38;173.07;;;134.83;;
735;SDS011;352;48.626;9.238;2022-07-29T04:30:26;214.73;;;141.43;;
735;SDS011;352;48.626;9.238;2022-07-29T04:32:53;222.83;;;149.33;;
735;SDS011;352;48.626;9.238;2022-07-29T04:35:20;342.27;;;158.03;;
735;SDS011;352;48.626;9.238;2022-07-29T04:37:47;301.80;;;148.13;;
735;SDS011;352;48.626;9.238;2022-07-29T04:40:14;254.63;;;153.10;;
735;SDS011;352;48.626;9.238;2022-07-29T04:42:41;222.80;;;145.00;;
735;SDS011;352;48.626;9.238;2022-07-29T04:45:09;234.20;;;149.37;;
735;SDS011;352;48.626;9.238;2022-07-29T04:47:37;223.37;;;155.10;;
735;SDS011;352;48.626;9.238;2022-07-29T04:50:04;217.50;;;158.50;;
735;SDS011;352;48.626;9.238;2022-07-29T04:52:32;194.07;;;157.50;;
735;SDS011;352;48.626;9.238;2022-07-29T04:54:59;219.80;;;147.73;;
735;SDS011;352;48.626;9.238;2022-07-29T04:57:26;197.70;;;150.20;;
735;SDS011;352;48.626;9.238;2022-07-29T04:59:53;195.00;;;153.93;;
735;SDS011;352;48.626;9.238;2022-07-29T05:02:20;207.37;;;148.03;;
735;SDS011;352;48.626;9.238;2022-07-29T05:04:49;183.97;;;144.33;;
735;SDS011;352;48.626;9.238;2022-07-29T05:07:16;181.90;;;150.97;;
735;SDS011;352;48.626;9.238;2022-07-29T05:09:43;185.33;;;144.43;;
735;SDS011;352;48.626;9.238;2022-07-29T05:12:10;200.27;;;154.63;;
735;SDS011;352;48.626;9.238;2022-07-29T05:14:37;204.90;;;153.63;;
735;SDS011;352;48.626;9.238;2022-07-29T05:17:04;189.80;;;145.70;;
735;SDS011;352;48.626;9.238;2022-07-29T05:19:31;217.70;;;161.03;;
735;SDS011;352;48.626;9.238;2022-07-29T05:21:59;181.90;;;152.30;;
735;SDS011;352;48.626;9.238;2022-07-29T05:24:26;194.93;;;161.70;;
735;SDS011;352;48.626;9.238;2022-07-29T05:26:53;218.30;;;167.23;;
735;SDS011;352;48.626;9.238;2022-07-29T05:29:20;217.97;;;175.33;;
735;SDS011;352;48.626;9.238;2022-07-29T05:31:47;189.03;;;165.47;;
735;SDS011;352;48.626;9.238;2022-07-29T05:34:15;207.00;;;183.10;;
735;SDS011;352;48.626;9.238;2022-07-29T05:36:43;258.20;;;201.93;;
735;SDS011;352;48.626;9.238;2022-07-29T05:39:12;324.67;;;199.27;;
735;SDS011;352;48.626;9.238;2022-07-29T05:41:39;343.10;;;214.10;;
735;SDS011;352;48.626;9.238;2022-07-29T05:44:06;338.23;;;213.43;;
735;SDS011;352;48.626;9.238;2022-07-29T05:46:33;324.43;;;208.07;;
735;SDS011;352;48.626;9.238;2022-07-29T05:49:00;353.43;;;220.57;;
735;SDS011;352;48.626;9.238;2022-07-29T05:51:28;359.97;;;297.07;;
735;SDS011;352;48.626;9.238;2022-07-29T05:53:55;300.40;;;231.03;;
735;SDS011;352;48.626;9.238;2022-07-29T05:56:24;326.10;;;240.27;;
735;SDS011;352;48.626;9.238;2022-07-29T05:58:51;286.00;;;233.63;;
735;SDS011;352;48.626;9.238;2022-07-29T06:01:18;277.97;;;247.90;;
735;SDS011;352;48.626;9.238;2022-07-29T06:03:46;271.83;;;243.93;;
735;SDS011;352;48.626;9.238;2022-07-29T06:06:13;283.13;;;253.23;;
735;SDS011;352;48.626;9.238;2022-07-29T06:08:40;288.10;;;256.23;;
735;SDS011;352;48.626;9.238;2022-07-29T06:11:07;268.13;;;241.07;;
735;SDS011;352;48.626;9.238;2022-07-29T06:13:35;269.07;;;243.47;;
735;SDS011;352;48.626;9.238;2022-07-29T06:16:02;247.73;;;225.27;;
735;SDS011;352;48.626;9.238;2022-07-29T06:18:30;251.63;;;229.07;;
735;SDS011;352;48.626;9.238;2022-07-29T06:20:57;263.93;;;241.17;;
735;SDS011;352;48.626;9.238;2022-07-29T06:23:24;315.60;;;228.37;;
735;SDS011;352;48.626;9.238;2022-07-29T06:25:51;284.17;;;241.83;;
735;SDS011;352;48.626;9.238;2022-07-29T06:28:18;344.27;;;237.13;;
735;SDS011;352;48.626;9.238;2022-07-29T06:30:46;366.73;;;253.67;;
735;SDS011;352;48.626;9.238;2022-07-29T06:33:16;367.10;;;264.03;;
735;SDS011;352;48.626;9.238;2022-07-29T06:35:43;368.70;;;270.83;;
735;SDS011;352;48.626;9.238;2022-07-29T06:38:12;359.03;;;256.20;;
735;SDS011;352;48.626;9.238;2022-07-29T06:40:40;367.60;;;279.57;;
735;SDS011;352;48.626;9.238;2022-07-29T06:43:26;366.23;;;294.73;;
735;SDS011;352;48.626;9.238;2022-07-29T06:45:57;372.13;;;304.43;;
735;SDS011;352;48.626;9.238;2022-07-29T06:48:26;365.77;;;304.77;;
735;SDS011;352;48.626;9.238;2022-07-29T06:50:53;364.87;;;304.23;;
735;SDS011;352;48.626;9.238;2022-07-29T06:53:20;374.77;;;333.63;;
735;SDS011;352;48.626;9.238;2022-07-29T06:55:47;371.77;;;325.50;;
735;SDS011;352;48.626;9.238;2022-07-29T06:58:14;380.97;;;339.13;;
735;SDS011;352;48.626;9.238;2022-07-29T07:00:43;427.80;;;390.83;;
735;SDS011;352;48.626;9.238;2022-07-29T07:21:52;222.73;;;215.00;;
735;SDS011;352;48.626;9.238;2022-07-29T07:24:19;72.10;;;69.43;;
735;SDS011;352;48.626;9.238;2022-07-29T07:26:46;32.43;;;31.13;;
735;SDS011;352;48.626;9.238;2022-07-29T07:29:13;16.83;;;15.87;;
735;SDS011;352;48.626;9.238;2022-07-29T07:31:40;57.97;;;55.60;;
735;SDS011;352;48.626;9.238;2022-07-29T07:34:07;28.33;;;26.47;;
735;SDS011;352;48.626;9.238;2022-07-29T07:36:36;17.80;;;16.47;;
735;SDS011;352;48.626;9.238;2022-07-29T07:39:03;15.40;;;14.20;;
735;SDS011;352;48.626;9.238;2022-07-29T07:41:30;24.87;;;22.90;;
735;SDS011;352;48.626;9.238;2022-07-29T07:43:57;13.73;;;12.83;;
735;SDS011;352;48.626;9.238;2022-07-29T07:46:24;17.23;;;16.17;;
735;SDS011;352;48.626;9.238;2022-07-29T07:48:51;10.03;;;9.27;;
735;SDS011;352;48.626;9.238;2022-07-29T07:51:18;17.00;;;15.93;;
735;SDS011;352;48.626;9.238;2022-07-29T07:53:46;10.77;;;9.97;;
735;SDS011;352;48.626;9.238;2022-07-29T07:56:14;11.03;;;10.23;;
735;SDS011;352;48.626;9.238;2022-07-29T07:58:41;12.97;;;12.07;;
735;SDS011;352;48.626;9.238;2022-07-29T08:01:09;12.03;;;11.07;;
735;SDS011;352;48.626;9.238;2022-07-29T08:03:36;9.40;;;8.67;;
735;SDS011;352;48.626;9.238;2022-07-29T08:06:03;12.00;;;11.27;;
735;SDS011;352;48.626;9.238;2022-07-29T08:08:31;72.73;;;67.40;;
735;SDS011;352;48.626;9.238;2022-07-29T08:10:59;28.97;;;27.30;;
735;SDS011;352;48.626;9.238;2022-07-29T08:13:27;84.47;;;81.53;;
735;SDS011;352;48.626;9.238;2022-07-29T08:15:55;131.27;;;127.23;;
735;SDS011;352;48.626;9.238;2022-07-29T08:18:24;174.93;;;169.77;;
735;SDS011;352;48.626;9.238;2022-07-29T08:20:51;394.50;;;381.13;;
735;SDS011;352;48.626;9.238;2022-07-29T08:23:18;190.57;;;184.97;;
735;SDS011;352;48.626;9.238;2022-07-29T08:25:45;278.93;;;270.17;;
735;SDS011;352;48.626;9.238;2022-07-29T08:28:14;264.07;;;256.13;;
735;SDS011;352;48.626;9.238;2022-07-29T08:30:48;429.10;;;414.17;;
735;SDS011;352;48.626;9.238;2022-07-29T08:33:48;426.50;;;409.97;;
735;SDS011;352;48.626;9.238;2022-07-29T08:36:15;473.13;;;453.53;;
735;SDS011;352;48.626;9.238;2022-07-29T08:38:42;426.80;;;411.50;;
735;SDS011;352;48.626;9.238;2022-07-29T08:50:00;28.47;;;26.80;;
735;SDS011;352;48.626;9.238;2022-07-29T08:56:05;15.03;;;13.77;;
735;SDS011;352;48.626;9.238;2022-07-29T09:30:29;8.77;;;6.00;;
735;SDS011;352;48.626;9.238;2022-07-29T09:32:56;6.80;;;6.30;;
735;SDS011;352;48.626;9.238;2022-07-29T09:35:25;6.40;;;5.90;;
735;SDS011;352;48.626;9.238;2022-07-29T09:37:52;6.30;;;5.90;;
735;SDS011;352;48.626;9.238;2022-07-29T09:40:20;6.57;;;6.00;;
735;SDS011;352;48.626;9.238;2022-07-29T09:42:48;6.50;;;6.00;;
735;SDS011;352;48.626;9.238;2022-07-29T09:45:26;6.57;;;6.10;;
735;SDS011;352;48.626;9.238;2022-07-29T09:47:56;6.90;;;6.40;;
735;SDS011;352;48.626;9.238;2022-07-29T09:50:34;7.13;;;6.50;;
735;SDS011;352;48.626;9.238;2022-07-29T09:53:01;8.07;;;6.63;;
735;SDS011;352;48.626;9.238;2022-07-29T09:55:28;6.60;;;6.20;;
735;SDS011;352;48.626;9.238;2022-07-29T09:57:56;7.00;;;6.50;;
735;SDS011;352;48.626;9.238;2022-07-29T10:00:43;6.30;;;5.90;;
735;SDS011;352;48.626;9.238;2022-07-29T10:03:10;6.80;;;6.30;;
735;SDS011;352;48.626;9.238;2022-07-29T10:05:37;6.50;;;5.90;;
735;SDS011;352;48.626;9.238;2022-07-29T10:08:05;6.93;;;6.43;;
735;SDS011;352;48.626;9.238;2022-07-29T10:10:33;6.50;;;6.10;;
735;SDS011;352;48.626;9.238;2022-07-29T10:13:02;6.73;;;6.20;;
735;SDS011;352;48.626;9.238;2022-07-29T10:15:30;6.70;;;6.30;;
735;SDS011;352;48.626;9.238;2022-07-29T10:18:00;6.40;;;5.90;;
735;SDS011;352;48.626;9.238;2022-07-29T10:20:26;6.40;;;6.00;;
735;SDS011;352;48.626;9.238;2022-07-29T10:22:54;6.33;;;5.90;;
735;SDS011;352;48.626;9.238;2022-07-29T10:25:21;5.87;;;5.47;;
735;SDS011;352;48.626;9.238;2022-07-29T10:27:49;6.83;;;6.40;;
735;SDS011;352;48.626;9.238;2022-07-29T10:30:17;6.90;;;6.30;;
735;SDS011;352;48.626;9.238;2022-07-29T10:32:54;6.30;;;5.90;;
735;SDS011;352;48.626;9.238;2022-07-29T10:35:47;7.03;;;6.50;;
735;SDS011;352;48.626;9.238;2022-07-29T10:38:39;6.67;;;6.17;;
735;SDS011;352;48.626;9.238;2022-07-29T10:41:23;6.73;;;6.43;;
735;SDS011;352;48.626;9.238;2022-07-29T10:44:03;6.23;;;5.70;;
735;SDS011;352;48.626;9.238;2022-07-29T10:46:34;6.43;;;5.93;;
735;SDS011;352;48.626;9.238;2022-07-29T10:49:05;6.77;;;6.27;;
735;SDS011;352;48.626;9.238;2022-07-29T10:54:41;7.53;;;6.93;;
735;SDS011;352;48.626;9.238;2022-07-29T10:57:14;7.50;;;6.73;;
735;SDS011;352;48.626;9.238;2022-07-29T10:59:42;7.50;;;7.00;;
735;SDS011;352;48.626;9.238;2022-07-29T11:09:16;9.07;;;6.50;;
735;SDS011;352;48.626;9.238;2022-07-29T11:15:24;7.60;;;6.90;;
735;SDS011;352;48.626;9.238;2022-07-29T11:23:48;7.10;;;6.60;;
735;SDS011;352;48.626;9.238;2022-07-29T11:26:16;6.83;;;6.40;;
735;SDS011;352;48.626;9.238;2022-07-29T11:28:50;9.00;;;7.00;;
735;SDS011;352;48.626;9.238;2022-07-29T11:31:33;7.80;;;7.30;;
735;SDS011;352;48.626;9.238;2022-07-29T11:34:19;7.47;;;6.90;;
735;SDS011;352;48.626;9.238;2022-07-29T11:37:23;7.80;;;7.30;;
735;SDS011;352;48.626;9.238;2022-07-29T11:40:16;7.73;;;7.03;;
735;SDS011;352;48.626;9.238;2022-07-29T11:42:47;6.77;;;5.73;;
735;SDS011;352;48.626;9.238;2022-07-29T11:45:16;22.40;;;11.90;;
735;SDS011;352;48.626;9.238;2022-07-29T11:47:52;300.93;;;288.10;;
735;SDS011;352;48.626;9.238;2022-07-29T11:50:30;285.87;;;272.30;;
735;SDS011;352;48.626;9.238;2022-07-29T11:52:58;271.20;;;257.17;;
735;SDS011;352;48.626;9.238;2022-07-29T11:55:26;293.67;;;272.97;;
735;SDS011;352;48.626;9.238;2022-07-29T11:57:54;311.30;;;289.40;;
735;SDS011;352;48.626;9.238;2022-07-29T12:00:25;281.90;;;260.23;;
735;SDS011;352;48.626;9.238;2022-07-29T12:02:55;274.97;;;254.23;;
735;SDS011;352;48.626;9.238;2022-07-29T12:05:34;289.47;;;267.83;;
735;SDS011;352;48.626;9.238;2022-07-29T12:08:06;291.17;;;267.97;;
735;SDS011;352;48.626;9.238;2022-07-29T12:10:34;296.87;;;272.77;;
735;SDS011;352;48.626;9.238;2022-07-29T12:13:02;324.80;;;297.93;;
735;SDS011;352;48.626;9.238;2022-07-29T12:15:29;261.57;;;245.80;;
735;SDS011;352;48.626;9.238;2022-07-29T12:17:57;267.17;;;252.17;;
735;SDS011;352;48.626;9.238;2022-07-29T12:20:25;273.87;;;259.77;;
735;SDS011;352;48.626;9.238;2022-07-29T12:22:53;305.93;;;290.33;;
735;SDS011;352;48.626;9.238;2022-07-29T12:25:21;313.83;;;298.63;;
735;SDS011;352;48.626;9.238;2022-07-29T12:27:57;307.63;;;293.03;;
735;SDS011;352;48.626;9.238;2022-07-29T12:30:33;304.80;;;289.67;;
735;SDS011;352;48.626;9.238;2022-07-29T12:33:11;317.57;;;302.30;;
735;SDS011;352;48.626;9.238;2022-07-29T12:35:39;244.53;;;232.00;;
735;SDS011;352;48.626;9.238;2022-07-29T12:38:06;260.90;;;247.47;;
735;SDS011;352;48.626;9.238;2022-07-29T12:40:33;241.57;;;229.40;;
735;SDS011;352;48.626;9.238;2022-07-29T12:43:07;215.00;;;204.57;;
735;SDS011;352;48.626;9.238;2022-07-29T12:45:35;201.20;;;191.07;;
735;SDS011;352;48.626;9.238;2022-07-29T12:48:02;234.73;;;222.97;;
735;SDS011;352;48.626;9.238;2022-07-29T12:50:31;195.57;;;185.53;;
735;SDS011;352;48.626;9.238;2022-07-29T12:53:08;207.50;;;196.87;;
735;SDS011;352;48.626;9.238;2022-07-29T12:55:42;197.23;;;186.83;;
735;SDS011;352;48.626;9.238;2022-07-29T12:58:13;226.87;;;212.97;;
735;SDS011;352;48.626;9.238;2022-07-29T13:00:41;234.93;;;220.47;;
735;SDS011;352;48.626;9.238;2022-07-29T13:03:08;245.67;;;230.47;;
735;SDS011;352;48.626;9.238;2022-07-29T13:05:40;223.80;;;209.27;;
735;SDS011;352;48.626;9.238;2022-07-29T13:08:11;224.13;;;209.37;;
735;SDS011;352;48.626;9.238;2022-07-29T13:10:38;240.03;;;224.57;;
735;SDS011;352;48.626;9.238;2022-07-29T13:13:07;237.87;;;221.77;;
735;SDS011;352;48.626;9.238;2022-07-29T13:15:35;249.20;;;232.37;;
735;SDS011;352;48.626;9.238;2022-07-29T13:18:03;260.10;;;242.70;;
735;SDS011;352;48.626;9.238;2022-07-29T13:20:30;245.47;;;228.27;;
735;SDS011;352;48.626;9.238;2022-07-29T13:22:59;258.30;;;240.17;;
735;SDS011;352;48.626;9.238;2022-07-29T13:25:27;246.27;;;228.43;;
735;SDS011;352;48.626;9.238;2022-07-29T13:27:56;236.30;;;218.80;;
735;SDS011;352;48.626;9.238;2022-07-29T13:30:23;271.47;;;253.53;;
735;SDS011;352;48.626;9.238;2022-07-29T13:32:51;250.57;;;232.97;;
735;SDS011;352;48.626;9.238;2022-07-29T13:35:18;288.43;;;268.77;;
735;SDS011;352;48.626;9.238;2022-07-29T13:37:45;259.50;;;241.50;;
735;SDS011;352;48.626;9.238;2022-07-29T13:40:14;299.50;;;278.63;;
735;SDS011;352;48.626;9.238;2022-07-29T13:42:41;251.27;;;232.37;;
735;SDS011;352;48.626;9.238;2022-07-29T13:45:08;253.13;;;234.37;;
735;SDS011;352;48.626;9.238;2022-07-29T13:47:36;262.30;;;244.23;;
735;SDS011;352;48.626;9.238;2022-07-29T13:50:05;256.47;;;239.07;;
735;SDS011;352;48.626;9.238;2022-07-29T13:52:35;259.80;;;240.73;;
735;SDS011;352;48.626;9.238;2022-07-29T13:55:05;240.93;;;224.43;;
735;SDS011;352;48.626;9.238;2022-07-29T13:57:43;250.70;;;233.87;;
735;SDS011;352;48.626;9.238;2022-07-29T14:00:11;251.27;;;234.00;;
735;SDS011;352;48.626;9.238;2022-07-29T14:02:40;256.00;;;238.07;;
735;SDS011;352;48.626;9.238;2022-07-29T14:05:07;257.13;;;238.47;;
735;SDS011;352;48.626;9.238;2022-07-29T14:07:35;259.40;;;241.17;;
735;SDS011;352;48.626;9.238;2022-07-29T14:10:03;247.07;;;228.47;;
735;SDS011;352;48.626;9.238;2022-07-29T14:12:32;262.20;;;243.30;;
735;SDS011;352;48.626;9.238;2022-07-29T14:14:59;257.00;;;238.23;;
735;SDS011;352;48.626;9.238;2022-07-29T14:17:26;278.10;;;258.70;;
735;SDS011;352;48.626;9.238;2022-07-29T14:19:53;276.20;;;257.30;;
735;SDS011;352;48.626;9.238;2022-07-29T14:22:20;261.13;;;242.57;;
735;SDS011;352;48.626;9.238;2022-07-29T14:24:47;277.07;;;258.30;;
735;SDS011;352;48.626;9.238;2022-07-29T14:27:32;287.63;;;267.57;;
735;SDS011;352;48.626;9.238;2022-07-29T14:30:06;267.80;;;247.90;;
735;SDS011;352;48.626;9.238;2022-07-29T14:35:43;219.17;;;205.73;;
735;SDS011;352;48.626;9.238;2022-07-29T14:38:11;12.07;;;11.03;;
735;SDS011;352;48.626;9.238;2022-07-29T14:43:50;89.97;;;86.00;;
735;SDS011;352;48.626;9.238;2022-07-29T14:46:18;70.87;;;67.80;;
735;SDS011;352;48.626;9.238;2022-07-29T14:48:45;68.93;;;66.07;;
735;SDS011;352;48.626;9.238;2022-07-29T14:51:14;42.03;;;39.73;;
735;SDS011;352;48.626;9.238;2022-07-29T14:53:42;36.33;;;34.50;;
735;SDS011;352;48.626;9.238;2022-07-29T14:56:09;28.77;;;26.97;;
735;SDS011;352;48.626;9.238;2022-07-29T14:58:36;21.27;;;19.73;;
735;SDS011;352;48.626;9.238;2022-07-29T15:01:05;32.37;;;30.07;;
735;SDS011;352;48.626;9.238;2022-07-29T15:03:32;27.83;;;26.07;;
735;SDS011;352;48.626;9.238;2022-07-29T15:05:59;33.00;;;30.70;;
735;SDS011;352;48.626;9.238;2022-07-29T15:08:26;25.37;;;23.80;;
735;SDS011;352;48.626;9.238;2022-07-29T15:10:54;21.00;;;19.13;;
735;SDS011;352;48.626;9.238;2022-07-29T15:13:24;33.63;;;31.53;;
735;SDS011;352;48.626;9.238;2022-07-29T15:15:51;34.57;;;32.33;;
735;SDS011;352;48.626;9.238;2022-07-29T15:18:19;22.87;;;21.17;;
735;SDS011;352;48.626;9.238;2022-07-29T15:20:46;24.73;;;22.83;;
735;SDS011;352;48.626;9.238;2022-07-29T15:23:13;26.73;;;24.93;;
735;SDS011;352;48.626;9.238;2022-07-29T15:25:40;25.93;;;24.27;;
735;SDS011;352;48.626;9.238;2022-07-29T15:28:07;34.90;;;33.07;;
735;SDS011;352;48.626;9.238;2022-07-29T15:30:35;60.20;;;56.73;;
735;SDS011;352;48.626;9.238;2022-07-29T15:33:05;43.03;;;40.63;;
735;SDS011;352;48.626;9.238;2022-07-29T15:35:34;45.40;;;42.83;;
735;SDS011;352;48.626;9.238;2022-07-29T15:38:01;51.43;;;48.90;;
735;SDS011;352;48.626;9.238;2022-07-29T15:40:28;51.63;;;49.13;;
735;SDS011;352;48.626;9.238;2022-07-29T15:42:55;39.43;;;37.47;;
735;SDS011;352;48.626;9.238;2022-07-29T15:45:25;38.90;;;36.67;;
735;SDS011;352;48.626;9.238;2022-07-29T15:47:53;34.53;;;32.60;;
735;SDS011;352;48.626;9.238;2022-07-29T15:50:20;35.57;;;33.73;;
735;SDS011;352;48.626;9.238;2022-07-29T15:52:48;33.83;;;31.83;;
735;SDS011;352;48.626;9.238;2022-07-29T15:55:15;20.80;;;19.60;;
735;SDS011;352;48.626;9.238;2022-07-29T15:57:42;31.13;;;28.93;;
735;SDS011;352;48.626;9.238;2022-07-29T16:00:10;44.70;;;42.30;;
735;SDS011;352;48.626;9.238;2022-07-29T16:02:37;27.63;;;26.07;;
735;SDS011;352;48.626;9.238;2022-07-29T16:05:05;47.40;;;44.53;;
735;SDS011;352;48.626;9.238;2022-07-29T16:07:32;44.70;;;42.40;;
735;SDS011;352;48.626;9.238;2022-07-29T16:10:00;31.83;;;29.87;;
735;SDS011;352;48.626;9.238;2022-07-29T16:12:27;57.70;;;55.23;;
735;SDS011;352;48.626;9.238;2022-07-29T16:14:54;69.33;;;66.10;;
735;SDS011;352;48.626;9.238;2022-07-29T16:17:21;62.93;;;59.80;;
735;SDS011;352;48.626;9.238;2022-07-29T16:19:48;56.83;;;54.07;;
735;SDS011;352;48.626;9.238;2022-07-29T16:22:17;58.57;;;55.83;;
735;SDS011;352;48.626;9.238;2022-07-29T16:24:44;50.20;;;47.73;;
735;SDS011;352;48.626;9.238;2022-07-29T16:27:12;60.43;;;57.33;;
735;SDS011;352;48.626;9.238;2022-07-29T16:29:39;37.53;;;35.63;;
735;SDS011;352;48.626;9.238;2022-07-29T16:32:06;26.20;;;25.00;;
735;SDS011;352;48.626;9.238;2022-07-29T16:34:33;48.80;;;46.10;;
735;SDS011;352;48.626;9.238;2022-07-29T16:37:00;43.40;;;40.90;;
735;SDS011;352;48.626;9.238;2022-07-29T16:39:27;51.90;;;49.33;;
735;SDS011;352;48.626;9.238;2022-07-29T16:41:54;55.57;;;52.80;;